createdAt,value
2019-01-11T00:00:39.623Z,2.57
2019-01-11T00:01:39.621Z,2.48
2019-01-11T00:02:39.596Z,2.54
2019-01-11T00:03:39.586Z,2.60
2019-01-11T00:04:39.572Z,2.48
2019-01-11T00:05:39.561Z,2.61
2019-01-11T00:06:39.546Z,2.61
2019-01-11T00:07:39.537Z,2.57
2019-01-11T00:08:39.522Z,2.46
2019-01-11T00:09:39.510Z,2.53
2019-01-11T00:10:39.497Z,2.57
2019-01-11T00:11:39.486Z,2.57
2019-01-11T00:12:39.472Z,2.56
2019-01-11T00:13:39.461Z,2.46
2019-01-11T00:14:39.446Z,2.52
2019-01-11T00:15:39.436Z,2.57
2019-01-11T00:16:39.421Z,2.54
2019-01-11T00:17:39.411Z,2.54
2019-01-11T00:18:39.396Z,2.57
2019-01-11T00:19:39.389Z,2.59
2019-01-11T00:20:39.371Z,2.59
2019-01-11T00:21:39.362Z,2.54
2019-01-11T00:22:39.346Z,2.56
2019-01-11T00:23:39.336Z,2.48
2019-01-11T00:24:39.321Z,2.49
2019-01-11T00:25:39.310Z,2.49
2019-01-11T00:26:39.296Z,2.49
2019-01-11T00:27:39.298Z,2.52
2019-01-11T00:28:39.270Z,2.48
2019-01-11T00:29:39.264Z,2.57
2019-01-11T00:30:39.244Z,2.57
2019-01-11T00:31:39.236Z,2.46
2019-01-11T00:32:39.220Z,2.52
2019-01-11T00:33:39.210Z,2.54
2019-01-11T00:34:39.195Z,2.59
2019-01-11T00:35:39.184Z,2.57
2019-01-11T00:36:39.169Z,2.48
2019-01-11T00:37:39.159Z,2.46
2019-01-11T00:38:39.144Z,2.45
2019-01-11T00:39:39.133Z,2.49
2019-01-11T00:40:39.118Z,2.54
2019-01-11T00:41:39.107Z,2.49
2019-01-11T00:42:39.105Z,2.52
2019-01-11T00:43:39.082Z,2.49
2019-01-11T00:44:39.071Z,2.54
2019-01-11T00:45:39.058Z,2.56
2019-01-11T00:46:39.058Z,2.57
2019-01-11T00:47:39.033Z,2.60
2019-01-11T00:48:39.017Z,2.54
2019-01-11T00:49:39.007Z,2.49
2019-01-11T00:50:38.992Z,2.61
2019-01-11T00:51:38.982Z,2.53
2019-01-11T00:52:38.969Z,2.52
2019-01-11T00:53:38.957Z,2.56
2019-01-11T00:54:38.942Z,2.59
2019-01-11T00:55:38.936Z,2.54
2019-01-11T00:56:38.919Z,2.59
2019-01-11T00:57:38.929Z,2.61
2019-01-11T00:58:38.900Z,2.48
2019-01-11T00:59:38.883Z,2.56
2019-01-11T01:00:38.868Z,2.54
2019-01-11T01:01:38.858Z,2.56
2019-01-11T01:02:38.843Z,2.56
2019-01-11T01:03:38.833Z,2.49
2019-01-11T01:04:38.818Z,2.60
2019-01-11T01:05:38.809Z,2.56
2019-01-11T01:06:38.795Z,2.59
2019-01-11T01:07:38.784Z,2.56
2019-01-11T01:08:38.770Z,2.53
2019-01-11T01:09:38.763Z,2.67
2019-01-11T01:10:38.743Z,2.64
2019-01-11T01:11:38.733Z,2.66
2019-01-11T01:12:38.718Z,2.59
2019-01-11T01:13:38.709Z,2.60
2019-01-11T01:14:38.694Z,2.63
2019-01-11T01:15:38.687Z,2.63
2019-01-11T01:16:38.669Z,2.60
2019-01-11T01:17:38.659Z,2.60
2019-01-11T01:18:38.644Z,2.71
2019-01-11T01:19:38.636Z,2.59
2019-01-11T01:20:38.620Z,2.63
2019-01-11T01:21:38.609Z,2.69
2019-01-11T01:22:38.597Z,2.61
2019-01-11T01:23:38.587Z,2.61
2019-01-11T01:24:38.571Z,2.66
2019-01-11T01:25:38.560Z,2.59
2019-01-11T01:26:38.545Z,2.66
2019-01-11T01:27:38.535Z,2.74
2019-01-11T01:28:38.521Z,2.67
2019-01-11T01:29:38.511Z,2.61
2019-01-11T01:30:38.499Z,2.66
2019-01-11T01:31:38.487Z,2.66
2019-01-11T01:32:38.472Z,2.69
2019-01-11T01:33:38.461Z,2.74
2019-01-11T01:34:38.446Z,2.71
2019-01-11T01:35:38.436Z,2.71
2019-01-11T01:36:38.424Z,2.69
2019-01-11T01:37:38.413Z,2.77
2019-01-11T01:38:38.397Z,2.75
2019-01-11T01:39:38.391Z,2.79
2019-01-11T01:40:38.374Z,2.87
2019-01-11T01:41:38.364Z,2.79
2019-01-11T01:42:38.348Z,2.87
2019-01-11T01:43:38.339Z,2.84
2019-01-11T01:44:38.324Z,2.77
2019-01-11T01:45:38.318Z,2.79
2019-01-11T01:46:38.299Z,2.81
2019-01-11T01:47:38.290Z,2.79
2019-01-11T01:48:38.276Z,2.75
2019-01-11T01:49:38.265Z,2.81
2019-01-11T01:50:38.252Z,2.85
2019-01-11T01:51:38.252Z,2.89
2019-01-11T01:52:38.226Z,2.82
2019-01-11T01:53:38.216Z,2.82
2019-01-11T01:54:38.202Z,2.81
2019-01-11T01:55:38.193Z,2.77
2019-01-11T01:56:38.192Z,2.71
2019-01-11T01:57:38.166Z,2.90
2019-01-11T01:58:38.152Z,2.72
2019-01-11T01:59:38.144Z,2.79
2019-01-11T02:00:38.128Z,2.89
2019-01-11T02:01:38.118Z,2.84
2019-01-11T02:02:38.107Z,2.81
2019-01-11T02:03:38.098Z,2.75
2019-01-11T02:04:38.079Z,2.78
2019-01-11T02:05:38.070Z,2.81
2019-01-11T02:06:38.054Z,2.87
2019-01-11T02:07:38.052Z,2.82
2019-01-11T02:08:38.033Z,2.85
2019-01-11T02:09:38.020Z,2.87
2019-01-11T02:10:38.005Z,2.85
2019-01-11T02:11:37.996Z,2.92
2019-01-11T02:12:37.983Z,2.85
2019-01-11T02:13:37.970Z,2.95
2019-01-11T02:14:37.956Z,2.96
2019-01-11T02:15:37.946Z,2.92
2019-01-11T02:16:37.937Z,2.84
2019-01-11T02:17:37.922Z,2.84
2019-01-11T02:18:37.907Z,2.90
2019-01-11T02:19:37.897Z,2.85
2019-01-11T02:20:37.883Z,2.87
2019-01-11T02:21:37.873Z,2.93
2019-01-11T02:22:37.860Z,2.92
2019-01-11T02:23:37.849Z,2.89
2019-01-11T02:24:37.839Z,2.85
2019-01-11T02:25:37.823Z,2.93
2019-01-11T02:26:37.809Z,2.87
2019-01-11T02:27:37.806Z,2.87
2019-01-11T02:28:37.787Z,2.92
2019-01-11T02:29:37.778Z,2.90
2019-01-11T02:30:37.775Z,2.90
2019-01-11T02:31:37.755Z,2.85
2019-01-11T02:32:37.740Z,2.90
2019-01-11T02:33:37.727Z,2.89
2019-01-11T02:34:37.712Z,2.93
2019-01-11T02:35:37.704Z,2.87
2019-01-11T02:36:37.688Z,2.84
2019-01-11T02:37:37.681Z,2.93
2019-01-11T02:38:37.664Z,2.93
2019-01-11T02:39:37.668Z,2.99
2019-01-11T02:40:37.640Z,3.00
2019-01-11T02:41:37.631Z,2.95
2019-01-11T02:42:37.619Z,2.96
2019-01-11T02:43:37.636Z,2.95
2019-01-11T02:44:37.592Z,2.99
2019-01-11T02:45:37.586Z,2.89
2019-01-11T02:46:37.576Z,2.96
2019-01-11T02:47:37.568Z,2.99
2019-01-11T02:48:37.544Z,2.99
2019-01-11T02:49:40.177Z,3.03
2019-01-11T02:50:37.524Z,3.05
2019-01-11T02:51:37.510Z,3.03
2019-01-11T02:52:37.498Z,3.08
2019-01-11T02:53:37.486Z,3.11
2019-01-11T02:54:37.472Z,3.05
2019-01-11T02:55:37.464Z,2.99
2019-01-11T02:56:37.449Z,3.05
2019-01-11T02:57:37.438Z,3.05
2019-01-11T02:58:37.431Z,3.10
2019-01-11T02:59:37.422Z,3.00
2019-01-11T03:00:37.401Z,3.08
2019-01-11T03:01:37.405Z,3.06
2019-01-11T03:02:37.376Z,2.95
2019-01-11T03:03:37.373Z,3.08
2019-01-11T03:04:37.353Z,3.05
2019-01-11T03:05:37.344Z,3.00
2019-01-11T03:06:37.331Z,3.10
2019-01-11T03:07:37.338Z,3.00
2019-01-11T03:08:37.557Z,3.08
2019-01-11T03:09:37.295Z,3.00
2019-01-11T03:10:37.282Z,3.02
2019-01-11T03:11:37.277Z,3.00
2019-01-11T03:12:37.304Z,3.06
2019-01-11T03:13:37.247Z,2.95
2019-01-11T03:14:37.232Z,3.06
2019-01-11T03:15:37.223Z,2.99
2019-01-11T03:16:37.208Z,3.00
2019-01-11T03:17:37.197Z,3.00
2019-01-11T03:18:37.183Z,2.90
2019-01-11T03:19:37.176Z,3.03
2019-01-11T03:20:37.159Z,3.06
2019-01-11T03:21:37.149Z,2.97
2019-01-11T03:22:37.134Z,2.95
2019-01-11T03:23:37.126Z,2.95
2019-01-11T03:24:37.110Z,3.08
2019-01-11T03:25:37.099Z,3.08
2019-01-11T03:26:37.085Z,2.92
2019-01-11T03:27:37.150Z,2.97
2019-01-11T03:28:37.062Z,2.93
2019-01-11T03:29:37.053Z,3.08
2019-01-11T03:30:37.040Z,2.93
2019-01-11T03:31:37.033Z,3.03
2019-01-11T03:32:37.017Z,2.93
2019-01-11T03:33:37.002Z,2.97
2019-01-11T03:34:36.995Z,3.00
2019-01-11T03:35:36.976Z,2.95
2019-01-11T03:36:36.961Z,3.08
2019-01-11T03:37:36.952Z,3.03
2019-01-11T03:38:36.938Z,3.02
2019-01-11T03:39:36.926Z,3.00
2019-01-11T03:40:36.912Z,3.02
2019-01-11T03:41:36.905Z,3.14
2019-01-11T03:42:36.887Z,3.11
2019-01-11T03:43:36.892Z,3.10
2019-01-11T03:44:36.863Z,3.05
2019-01-11T03:45:36.853Z,3.06
2019-01-11T03:46:36.838Z,3.03
2019-01-11T03:47:36.830Z,3.02
2019-01-11T03:48:36.814Z,3.20
2019-01-11T03:49:36.804Z,3.14
2019-01-11T03:50:36.789Z,3.10
2019-01-11T03:51:36.778Z,3.13
2019-01-11T03:52:36.772Z,3.15
2019-01-11T03:53:36.757Z,3.15
2019-01-11T03:54:36.742Z,3.15
2019-01-11T03:55:37.029Z,3.15
2019-01-11T03:56:36.718Z,3.18
2019-01-11T03:57:36.704Z,3.18
2019-01-11T03:58:36.695Z,3.21
2019-01-11T03:59:36.681Z,3.14
2019-01-11T04:00:36.671Z,3.21
2019-01-11T04:01:36.655Z,3.23
2019-01-11T04:02:36.646Z,3.17
2019-01-11T04:03:36.632Z,3.15
2019-01-11T04:04:36.623Z,3.31
2019-01-11T04:05:36.608Z,3.28
2019-01-11T04:06:36.599Z,3.33
2019-01-11T04:07:36.587Z,3.32
2019-01-11T04:08:36.578Z,3.32
2019-01-11T04:09:36.561Z,3.28
2019-01-11T04:10:36.551Z,3.31
2019-01-11T04:11:36.538Z,3.36
2019-01-11T04:12:36.529Z,3.36
2019-01-11T04:13:36.528Z,3.32
2019-01-11T04:14:36.506Z,3.31
2019-01-11T04:15:36.494Z,3.28
2019-01-11T04:16:36.486Z,3.31
2019-01-11T04:17:36.470Z,3.43
2019-01-11T04:18:36.459Z,3.48
2019-01-11T04:19:36.448Z,3.45
2019-01-11T04:20:36.437Z,3.40
2019-01-11T04:21:36.423Z,3.42
2019-01-11T04:22:36.420Z,3.51
2019-01-11T04:23:36.418Z,3.51
2019-01-11T04:24:36.395Z,3.43
2019-01-11T04:25:36.379Z,3.47
2019-01-11T04:26:36.369Z,3.33
2019-01-11T04:27:36.359Z,3.39
2019-01-11T04:28:36.366Z,3.45
2019-01-11T04:29:36.334Z,3.39
2019-01-11T04:30:36.328Z,3.43
2019-01-11T04:31:36.311Z,3.43
2019-01-11T04:32:36.304Z,3.40
2019-01-11T04:33:36.290Z,3.47
2019-01-11T04:34:36.281Z,3.42
2019-01-11T04:35:36.266Z,3.51
2019-01-11T04:36:36.260Z,3.50
2019-01-11T04:37:36.243Z,3.45
2019-01-11T04:38:36.235Z,3.48
2019-01-11T04:39:36.222Z,3.50
2019-01-11T04:40:36.213Z,3.57
2019-01-11T04:41:36.198Z,3.50
2019-01-11T04:42:36.190Z,3.51
2019-01-11T04:43:36.178Z,3.51
2019-01-11T04:44:36.320Z,3.54
2019-01-11T04:45:36.166Z,3.52
2019-01-11T04:46:36.145Z,3.54
2019-01-11T04:47:36.132Z,3.52
2019-01-11T04:48:36.126Z,3.61
2019-01-11T04:49:36.109Z,3.55
2019-01-11T04:50:36.101Z,3.55
2019-01-11T04:51:36.089Z,3.66
2019-01-11T04:52:36.079Z,3.65
2019-01-11T04:53:36.067Z,3.55
2019-01-11T04:54:36.057Z,3.65
2019-01-11T04:55:36.047Z,3.52
2019-01-11T04:56:36.037Z,3.55
2019-01-11T04:57:36.022Z,3.65
2019-01-11T04:58:36.013Z,3.62
2019-01-11T04:59:36.000Z,3.55
2019-01-11T05:00:36.007Z,3.68
2019-01-11T05:01:35.978Z,3.61
2019-01-11T05:02:35.970Z,3.69
2019-01-11T05:03:35.958Z,3.69
2019-01-11T05:04:35.949Z,3.62
2019-01-11T05:05:35.934Z,3.68
2019-01-11T05:06:35.927Z,3.70
2019-01-11T05:07:35.913Z,3.72
2019-01-11T05:08:35.904Z,3.72
2019-01-11T05:09:35.890Z,3.65
2019-01-11T05:10:35.905Z,3.68
2019-01-11T05:11:35.870Z,3.66
2019-01-11T05:12:35.860Z,3.69
2019-01-11T05:13:35.846Z,3.69
2019-01-11T05:14:35.837Z,3.72
2019-01-11T05:15:35.825Z,3.65
2019-01-11T05:16:39.481Z,3.69
2019-01-11T05:17:35.803Z,3.68
2019-01-11T05:18:35.794Z,3.78
2019-01-11T05:19:35.781Z,3.68
2019-01-11T05:20:35.772Z,3.69
2019-01-11T05:21:35.760Z,3.69
2019-01-11T05:22:35.750Z,3.75
2019-01-11T05:23:35.737Z,3.75
2019-01-11T05:24:35.729Z,3.72
2019-01-11T05:25:35.714Z,3.76
2019-01-11T05:26:35.706Z,3.75
2019-01-11T05:27:35.695Z,3.73
2019-01-11T05:28:35.685Z,3.76
2019-01-11T05:29:35.671Z,3.79
2019-01-11T05:30:35.666Z,3.78
2019-01-11T05:31:35.651Z,3.78
2019-01-11T05:32:35.641Z,3.78
2019-01-11T05:33:35.628Z,3.75
2019-01-11T05:34:35.619Z,3.76
2019-01-11T05:35:35.607Z,3.79
2019-01-11T05:36:35.599Z,3.83
2019-01-11T05:37:35.584Z,3.84
2019-01-11T05:38:35.576Z,3.84
2019-01-11T05:39:35.568Z,3.80
2019-01-11T05:40:35.555Z,3.87
2019-01-11T05:41:35.541Z,3.83
2019-01-11T05:42:35.532Z,3.83
2019-01-11T05:43:35.519Z,3.86
2019-01-11T05:44:35.512Z,3.78
2019-01-11T05:45:35.518Z,3.83
2019-01-11T05:46:35.489Z,3.91
2019-01-11T05:47:35.475Z,3.84
2019-01-11T05:48:35.467Z,3.93
2019-01-11T05:49:35.454Z,3.94
2019-01-11T05:50:35.457Z,3.93
2019-01-11T05:51:35.432Z,3.88
2019-01-11T05:52:35.425Z,3.98
2019-01-11T05:53:35.411Z,3.96
2019-01-11T05:54:35.403Z,3.94
2019-01-11T05:55:35.389Z,3.97
2019-01-11T05:56:35.382Z,3.98
2019-01-11T05:57:35.367Z,4.04
2019-01-11T05:58:35.358Z,3.98
2019-01-11T05:59:35.346Z,3.96
2019-01-11T06:00:35.337Z,4.00
2019-01-11T06:01:35.323Z,3.97
2019-01-11T06:02:35.315Z,3.96
2019-01-11T06:03:35.302Z,4.06
2019-01-11T06:04:35.295Z,4.00
2019-01-11T06:05:35.283Z,4.04
2019-01-11T06:06:35.273Z,4.05
2019-01-11T06:07:35.263Z,4.06
2019-01-11T06:08:35.251Z,3.97
2019-01-11T06:09:35.237Z,4.04
2019-01-11T06:10:35.230Z,4.06
2019-01-11T06:11:35.218Z,4.02
2019-01-11T06:12:35.208Z,3.97
2019-01-11T06:13:35.194Z,4.06
2019-01-11T06:14:35.186Z,4.08
2019-01-11T06:15:35.173Z,4.05
2019-01-11T06:16:35.166Z,4.06
2019-01-11T06:17:35.152Z,4.08
2019-01-11T06:18:35.143Z,4.14
2019-01-11T06:19:35.131Z,4.18
2019-01-11T06:20:35.123Z,4.16
2019-01-11T06:21:35.113Z,4.16
2019-01-11T06:22:35.101Z,4.16
2019-01-11T06:23:35.088Z,4.05
2019-01-11T06:24:35.083Z,4.06
2019-01-11T06:25:35.067Z,4.14
2019-01-11T06:26:35.060Z,4.26
2019-01-11T06:27:35.052Z,4.23
2019-01-11T06:28:35.038Z,4.30
2019-01-11T06:29:35.024Z,4.29
2019-01-11T06:30:35.017Z,4.23
2019-01-11T06:31:35.005Z,4.22
2019-01-11T06:32:34.996Z,4.27
2019-01-11T06:33:34.983Z,4.27
2019-01-11T06:34:34.975Z,4.33
2019-01-11T06:35:34.964Z,4.34
2019-01-11T06:36:34.959Z,4.30
2019-01-11T06:37:34.941Z,4.32
2019-01-11T06:38:34.933Z,4.34
2019-01-11T06:39:34.922Z,4.34
2019-01-11T06:40:34.914Z,4.44
2019-01-11T06:41:34.902Z,4.33
2019-01-11T06:42:34.891Z,4.36
2019-01-11T06:43:34.879Z,4.36
2019-01-11T06:44:38.894Z,4.29
2019-01-11T06:45:34.858Z,4.42
2019-01-11T06:46:34.851Z,4.32
2019-01-11T06:47:34.837Z,4.44
2019-01-11T06:48:34.829Z,4.37
2019-01-11T06:49:34.816Z,4.41
2019-01-11T06:50:36.558Z,4.36
2019-01-11T06:51:34.797Z,4.30
2019-01-11T06:52:34.787Z,4.32
2019-01-11T06:53:34.792Z,4.32
2019-01-11T06:54:34.766Z,4.40
2019-01-11T06:55:34.754Z,4.44
2019-01-11T06:56:34.745Z,4.41
2019-01-11T06:57:34.731Z,4.34
2019-01-11T06:58:34.723Z,4.42
2019-01-11T06:59:34.710Z,4.41
2019-01-11T07:00:34.704Z,4.34
2019-01-11T07:01:34.689Z,4.36
2019-01-11T07:02:34.831Z,4.30
2019-01-11T07:03:34.668Z,4.40
2019-01-11T07:04:34.660Z,4.37
2019-01-11T07:05:34.647Z,4.27
2019-01-11T07:06:34.640Z,4.40
2019-01-11T07:07:34.626Z,4.50
2019-01-11T07:08:34.619Z,4.33
2019-01-11T07:09:35.351Z,4.41
2019-01-11T07:10:34.607Z,4.37
2019-01-11T07:11:34.585Z,4.29
2019-01-11T07:12:34.577Z,4.27
2019-01-11T07:13:34.563Z,4.37
2019-01-11T07:14:34.556Z,4.32
2019-01-11T07:15:34.557Z,4.37
2019-01-11T07:16:34.553Z,4.36
2019-01-11T07:17:34.523Z,4.42
2019-01-11T07:18:34.514Z,4.41
2019-01-11T07:19:34.502Z,4.45
2019-01-11T07:20:34.494Z,4.55
2019-01-11T07:21:34.484Z,4.48
2019-01-11T07:22:34.474Z,4.50
2019-01-11T07:23:34.462Z,4.47
2019-01-11T07:24:34.455Z,4.47
2019-01-11T07:25:34.440Z,4.55
2019-01-11T07:26:34.433Z,4.62
2019-01-11T07:27:34.421Z,4.65
2019-01-11T07:28:34.416Z,4.60
2019-01-11T07:29:34.400Z,4.60
2019-01-11T07:30:34.391Z,4.65
2019-01-11T07:31:34.380Z,4.66
2019-01-11T07:32:34.372Z,4.67
2019-01-11T07:33:34.359Z,4.72
2019-01-11T07:34:34.352Z,4.75
2019-01-11T07:35:34.340Z,4.70
2019-01-11T07:36:34.333Z,4.63
2019-01-11T07:37:34.320Z,4.73
2019-01-11T07:38:34.311Z,4.73
2019-01-11T07:39:34.299Z,4.63
2019-01-11T07:40:34.292Z,4.66
2019-01-11T07:41:34.279Z,4.72
2019-01-11T07:42:34.272Z,4.73
2019-01-11T07:43:34.261Z,4.73
2019-01-11T07:44:34.252Z,4.75
2019-01-11T07:45:34.240Z,4.78
2019-01-11T07:46:34.232Z,4.75
2019-01-11T07:47:34.220Z,4.80
2019-01-11T07:48:34.213Z,4.70
2019-01-11T07:49:34.200Z,4.69
2019-01-11T07:50:34.194Z,4.78
2019-01-11T07:51:34.181Z,4.69
2019-01-11T07:52:34.175Z,4.69
2019-01-11T07:53:34.165Z,4.70
2019-01-11T07:54:34.154Z,4.72
2019-01-11T07:55:34.145Z,4.80
2019-01-11T07:56:34.135Z,4.78
2019-01-11T07:57:34.123Z,4.88
2019-01-11T07:58:34.120Z,4.84
2019-01-11T07:59:34.104Z,4.92
2019-01-11T08:00:34.097Z,4.99
2019-01-11T08:01:34.085Z,5.00
2019-01-11T08:02:34.078Z,4.99
2019-01-11T08:03:34.066Z,5.04
2019-01-11T08:04:34.060Z,5.02
2019-01-11T08:05:34.046Z,4.99
2019-01-11T08:06:34.038Z,5.03
2019-01-11T08:07:34.032Z,5.00
2019-01-11T08:08:34.022Z,5.00
2019-01-11T08:09:34.012Z,5.02
2019-01-11T08:10:34.001Z,4.92
2019-01-11T08:11:33.992Z,4.96
2019-01-11T08:12:33.981Z,5.02
2019-01-11T08:13:33.972Z,4.99
2019-01-11T08:14:33.959Z,5.06
2019-01-11T08:15:33.952Z,5.06
2019-01-11T08:16:33.941Z,5.04
2019-01-11T08:17:33.934Z,5.10
2019-01-11T08:18:33.921Z,5.10
2019-01-11T08:19:33.914Z,5.04
2019-01-11T08:20:33.902Z,5.17
2019-01-11T08:21:33.896Z,5.18
2019-01-11T08:22:33.882Z,5.20
2019-01-11T08:23:33.875Z,5.15
2019-01-11T08:24:33.863Z,5.15
2019-01-11T08:25:33.856Z,5.12
2019-01-11T08:26:33.844Z,5.13
2019-01-11T08:27:33.844Z,5.12
2019-01-11T08:28:33.828Z,5.04
2019-01-11T08:29:33.817Z,5.03
2019-01-11T08:30:33.809Z,5.04
2019-01-11T08:31:34.770Z,5.09
2019-01-11T08:32:33.787Z,5.10
2019-01-11T08:33:33.779Z,5.13
2019-01-11T08:34:33.772Z,5.07
2019-01-11T08:35:33.760Z,5.15
2019-01-11T08:36:33.749Z,5.13
2019-01-11T08:37:33.742Z,5.12
2019-01-11T08:38:33.732Z,5.09
2019-01-11T08:39:33.725Z,5.17
2019-01-11T08:40:33.711Z,5.17
2019-01-11T08:41:33.715Z,5.15
2019-01-11T08:42:33.691Z,5.15
2019-01-11T08:43:33.684Z,5.09
2019-01-11T08:44:33.674Z,5.22
2019-01-11T08:45:33.665Z,5.17
2019-01-11T08:46:33.658Z,5.17
2019-01-11T08:47:33.645Z,5.18
2019-01-11T08:48:33.633Z,5.13
2019-01-11T08:49:33.625Z,5.18
2019-01-11T08:50:33.627Z,5.18
2019-01-11T08:51:33.606Z,5.21
2019-01-11T08:52:33.596Z,5.12
2019-01-11T08:53:33.587Z,5.15
2019-01-11T08:54:33.574Z,5.27
2019-01-11T08:55:33.568Z,5.09
2019-01-11T08:56:33.556Z,5.20
2019-01-11T08:57:33.547Z,5.18
2019-01-11T08:58:33.535Z,5.09
2019-01-11T08:59:33.527Z,5.15
2019-01-11T09:00:33.516Z,5.24
2019-01-11T09:01:33.508Z,5.20
2019-01-11T09:02:33.496Z,5.13
2019-01-11T09:03:33.489Z,5.18
2019-01-11T09:04:33.476Z,5.20
2019-01-11T09:05:33.468Z,5.06
2019-01-11T09:06:33.456Z,5.20
2019-01-11T09:07:33.448Z,5.15
2019-01-11T09:08:33.436Z,5.10
2019-01-11T09:09:33.428Z,5.15
2019-01-11T09:10:33.416Z,5.21
2019-01-11T09:11:33.408Z,5.20
2019-01-11T09:12:33.396Z,5.18
2019-01-11T09:13:33.387Z,5.27
2019-01-11T09:14:33.376Z,5.20
2019-01-11T09:15:33.368Z,5.17
2019-01-11T09:16:33.356Z,5.24
2019-01-11T09:17:33.348Z,5.24
2019-01-11T09:18:33.336Z,5.21
2019-01-11T09:19:33.327Z,5.22
2019-01-11T09:20:33.317Z,5.28
2019-01-11T09:21:33.307Z,5.27
2019-01-11T09:22:33.296Z,5.28
2019-01-11T09:23:33.287Z,5.31
2019-01-11T09:24:33.275Z,5.36
2019-01-11T09:25:33.267Z,5.40
2019-01-11T09:26:33.254Z,5.40
2019-01-11T09:27:33.247Z,5.38
2019-01-11T09:28:33.235Z,5.49
2019-01-11T09:29:33.247Z,5.54
2019-01-11T09:30:33.215Z,5.51
2019-01-11T09:31:33.207Z,5.49
2019-01-11T09:32:33.196Z,5.43
2019-01-11T09:33:33.187Z,5.39
2019-01-11T09:34:33.176Z,5.53
2019-01-11T09:35:33.169Z,5.56
2019-01-11T09:36:33.158Z,5.48
2019-01-11T09:37:33.148Z,5.49
2019-01-11T09:38:33.137Z,5.61
2019-01-11T09:39:33.133Z,5.65
2019-01-11T09:40:33.122Z,5.67
2019-01-11T09:41:33.109Z,5.71
2019-01-11T09:42:33.098Z,5.71
2019-01-11T09:43:33.091Z,5.68
2019-01-11T09:44:33.079Z,5.71
2019-01-11T09:45:33.071Z,5.79
2019-01-11T09:46:33.060Z,5.72
2019-01-11T09:47:33.053Z,5.67
2019-01-11T09:48:33.044Z,5.67
2019-01-11T09:49:33.034Z,5.83
2019-01-11T09:50:33.022Z,5.82
2019-01-11T09:51:33.015Z,5.82
2019-01-11T09:52:33.010Z,5.86
2019-01-11T09:53:32.996Z,5.96
2019-01-11T09:54:32.985Z,5.90
2019-01-11T09:55:32.980Z,5.81
2019-01-11T09:56:32.967Z,5.91
2019-01-11T09:57:32.960Z,5.96
2019-01-11T09:58:32.951Z,5.91
2019-01-11T09:59:35.196Z,5.93
2019-01-11T10:00:32.932Z,5.89
2019-01-11T10:01:32.924Z,5.90
2019-01-11T10:02:32.984Z,6.06
2019-01-11T10:03:32.907Z,6.09
2019-01-11T10:04:32.896Z,6.08
2019-01-11T10:05:32.890Z,6.08
2019-01-11T10:06:32.879Z,6.17
2019-01-11T10:07:32.871Z,6.12
2019-01-11T10:08:32.860Z,6.11
2019-01-11T10:09:32.853Z,6.14
2019-01-11T10:10:32.842Z,6.17
2019-01-11T10:11:32.838Z,6.21
2019-01-11T10:12:32.826Z,6.22
2019-01-11T10:13:32.834Z,6.33
2019-01-11T10:14:32.814Z,6.40
2019-01-11T10:15:32.818Z,6.33
2019-01-11T10:16:32.791Z,6.44
2019-01-11T10:17:32.784Z,6.48
2019-01-11T10:18:32.775Z,6.46
2019-01-11T10:19:32.767Z,6.38
2019-01-11T10:20:32.761Z,6.51
2019-01-11T10:21:32.765Z,6.51
2019-01-11T10:22:32.739Z,6.52
2019-01-11T10:23:32.734Z,6.56
2019-01-11T10:24:32.730Z,6.37
2019-01-11T10:25:32.717Z,6.48
2019-01-11T10:26:32.706Z,6.55
2019-01-11T10:27:32.701Z,6.52
2019-01-11T10:28:32.690Z,6.52
2019-01-11T10:29:32.687Z,6.55
2019-01-11T10:30:32.673Z,6.54
2019-01-11T10:31:32.867Z,6.66
2019-01-11T10:32:32.806Z,6.59
2019-01-11T10:33:36.191Z,6.70
2019-01-11T10:34:32.639Z,6.59
2019-01-11T10:35:32.632Z,6.64
2019-01-11T10:36:32.621Z,6.56
2019-01-11T10:37:33.329Z,6.67
2019-01-11T10:38:32.607Z,6.64
2019-01-11T10:39:32.598Z,6.69
2019-01-11T10:40:32.589Z,6.69
2019-01-11T10:41:32.583Z,6.64
2019-01-11T10:42:32.572Z,6.66
2019-01-11T10:43:32.567Z,6.70
2019-01-11T10:44:32.556Z,6.79
2019-01-11T10:45:32.548Z,6.84
2019-01-11T10:46:32.539Z,6.88
2019-01-11T10:47:32.532Z,6.98
2019-01-11T10:48:32.521Z,6.95
2019-01-11T10:49:32.514Z,6.98
2019-01-11T10:50:32.505Z,7.06
2019-01-11T10:51:32.498Z,7.09
2019-01-11T10:52:32.489Z,7.23
2019-01-11T10:53:32.483Z,7.12
2019-01-11T10:54:32.471Z,7.27
2019-01-11T10:55:32.466Z,7.25
2019-01-11T10:56:32.457Z,7.28
2019-01-11T10:57:32.449Z,7.31
2019-01-11T10:58:32.441Z,7.31
2019-01-11T10:59:32.435Z,7.37
2019-01-11T11:00:32.424Z,7.32
2019-01-11T11:01:32.418Z,7.35
2019-01-11T11:02:32.407Z,7.43
2019-01-11T11:03:32.401Z,7.37
2019-01-11T11:04:32.394Z,7.37
2019-01-11T11:05:32.385Z,7.40
2019-01-11T11:06:32.401Z,7.46
2019-01-11T11:07:32.370Z,7.48
2019-01-11T11:08:32.360Z,7.48
2019-01-11T11:09:32.356Z,7.50
2019-01-11T11:10:32.344Z,7.48
2019-01-11T11:11:32.341Z,7.53
2019-01-11T11:12:32.330Z,7.61
2019-01-11T11:13:32.323Z,7.60
2019-01-11T11:14:32.315Z,7.61
2019-01-11T11:15:32.308Z,7.60
2019-01-11T11:16:33.061Z,7.63
2019-01-11T11:17:32.292Z,7.60
2019-01-11T11:18:32.283Z,7.55
2019-01-11T11:19:32.277Z,7.63
2019-01-11T11:20:32.271Z,7.61
2019-01-11T11:21:34.829Z,7.63
2019-01-11T11:22:32.253Z,7.67
2019-01-11T11:23:32.247Z,7.64
2019-01-11T11:24:32.241Z,7.69
2019-01-11T11:25:32.232Z,7.69
2019-01-11T11:26:32.223Z,7.69
2019-01-11T11:27:32.217Z,7.68
2019-01-11T11:28:32.209Z,7.71
2019-01-11T11:29:32.201Z,7.72
2019-01-11T11:30:32.192Z,7.71
2019-01-11T11:31:32.187Z,7.69
2019-01-11T11:32:32.178Z,7.80
2019-01-11T11:33:32.171Z,7.83
2019-01-11T11:34:32.164Z,7.74
2019-01-11T11:35:32.165Z,7.75
2019-01-11T11:36:32.148Z,7.75
2019-01-11T11:37:32.142Z,7.72
2019-01-11T11:38:32.133Z,7.82
2019-01-11T11:39:32.128Z,7.89
2019-01-11T11:40:32.119Z,7.87
2019-01-11T11:41:32.112Z,7.97
2019-01-11T11:42:32.104Z,7.82
2019-01-11T11:43:32.148Z,7.80
2019-01-11T11:44:32.089Z,7.82
2019-01-11T11:45:32.083Z,7.85
2019-01-11T11:46:32.074Z,7.83
2019-01-11T11:47:32.069Z,7.93
2019-01-11T11:48:32.059Z,7.92
2019-01-11T11:49:32.054Z,7.97
2019-01-11T11:50:32.048Z,7.89
2019-01-11T11:51:32.043Z,7.89
2019-01-11T11:52:32.031Z,7.85
2019-01-11T11:53:32.025Z,7.80
2019-01-11T11:54:32.016Z,7.80
2019-01-11T11:55:32.016Z,7.92
2019-01-11T11:56:32.003Z,7.85
2019-01-11T11:57:31.998Z,7.90
2019-01-11T11:58:31.987Z,8.02
2019-01-11T11:59:31.985Z,8.04
2019-01-11T12:00:31.973Z,7.89
2019-01-11T12:01:32.118Z,8.07
2019-01-11T12:02:31.958Z,8.02
2019-01-11T12:03:31.953Z,7.93
2019-01-11T12:04:31.944Z,8.01
2019-01-11T12:05:31.945Z,7.93
2019-01-11T12:06:31.943Z,8.01
2019-01-11T12:07:31.926Z,8.04
2019-01-11T12:08:31.915Z,8.07
2019-01-11T12:09:31.911Z,8.05
2019-01-11T12:10:31.901Z,8.02
2019-01-11T12:11:31.899Z,8.08
2019-01-11T12:12:31.887Z,8.05
2019-01-11T12:13:34.632Z,8.08
2019-01-11T12:14:31.888Z,8.11
2019-01-11T12:15:31.867Z,8.11
2019-01-11T12:16:31.858Z,8.08
2019-01-11T12:17:31.854Z,8.02
2019-01-11T12:18:31.843Z,8.05
2019-01-11T12:19:31.839Z,8.07
2019-01-11T12:20:31.830Z,8.07
2019-01-11T12:21:31.826Z,8.04
2019-01-11T12:22:31.817Z,8.07
2019-01-11T12:23:31.813Z,8.08
2019-01-11T12:24:31.805Z,8.01
2019-01-11T12:25:31.801Z,8.11
2019-01-11T12:26:31.789Z,8.12
2019-01-11T12:27:31.781Z,8.11
2019-01-11T12:28:31.775Z,8.11
2019-01-11T12:29:31.766Z,8.11
2019-01-11T12:30:31.761Z,8.19
2019-01-11T12:31:31.753Z,8.23
2019-01-11T12:32:31.747Z,8.20
2019-01-11T12:33:31.738Z,8.29
2019-01-11T12:34:31.732Z,8.25
2019-01-11T12:35:31.725Z,8.20
2019-01-11T12:36:31.721Z,8.16
2019-01-11T12:37:31.710Z,8.26
2019-01-11T12:38:31.704Z,8.34
2019-01-11T12:39:31.696Z,8.29
2019-01-11T12:40:31.691Z,8.38
2019-01-11T12:41:31.681Z,8.25
2019-01-11T12:42:31.676Z,8.29
2019-01-11T12:43:31.669Z,8.25
2019-01-11T12:44:31.666Z,8.26
2019-01-11T12:45:31.657Z,8.33
2019-01-11T12:46:31.648Z,8.44
2019-01-11T12:47:31.639Z,8.34
2019-01-11T12:48:31.637Z,8.28
2019-01-11T12:49:31.876Z,8.34
2019-01-11T12:50:31.621Z,8.40
2019-01-11T12:51:31.612Z,8.28
2019-01-11T12:52:31.606Z,8.38
2019-01-11T12:53:31.597Z,8.36
2019-01-11T12:54:31.592Z,8.45
2019-01-11T12:55:31.586Z,8.38
2019-01-11T12:56:31.579Z,8.41
2019-01-11T12:57:31.571Z,8.37
2019-01-11T12:58:31.568Z,8.41
2019-01-11T12:59:31.556Z,8.38
2019-01-11T13:00:31.552Z,8.47
2019-01-11T13:01:31.541Z,8.44
2019-01-11T13:02:31.537Z,8.44
2019-01-11T13:03:31.528Z,8.43
2019-01-11T13:04:31.523Z,8.43
2019-01-11T13:05:31.514Z,8.47
2019-01-11T13:06:31.509Z,8.53
2019-01-11T13:07:31.500Z,8.52
2019-01-11T13:08:31.498Z,8.55
2019-01-11T13:09:31.486Z,8.61
2019-01-11T13:10:31.483Z,8.56
2019-01-11T13:11:31.472Z,8.56
2019-01-11T13:12:31.468Z,8.63
2019-01-11T13:13:31.458Z,8.68
2019-01-11T13:14:31.454Z,8.61
2019-01-11T13:15:31.447Z,8.65
2019-01-11T13:16:31.441Z,8.68
2019-01-11T13:17:31.431Z,8.62
2019-01-11T13:18:31.427Z,8.74